createdAt,value
2023-03-22T00:00:56.834Z,7.56
2023-03-22T00:03:27.741Z,7.52
2023-03-22T00:06:00.333Z,7.54
2023-03-22T00:08:29.755Z,7.55
2023-03-22T00:10:59.162Z,7.56
2023-03-22T00:13:28.767Z,7.60
2023-03-22T00:16:03.037Z,7.57
2023-03-22T00:18:32.903Z,7.57
2023-03-22T00:21:02.780Z,7.59
2023-03-22T00:23:32.357Z,7.59
2023-03-22T00:26:01.810Z,7.58
2023-03-22T00:28:31.326Z,7.60
2023-03-22T00:31:04.862Z,7.60
2023-03-22T00:33:34.515Z,7.62
2023-03-22T00:36:06.476Z,7.60
2023-03-22T00:38:44.807Z,7.64
2023-03-22T00:41:16.448Z,7.63
2023-03-22T00:43:46.315Z,7.60
2023-03-22T00:46:20.014Z,7.53
2023-03-22T00:48:49.874Z,7.53
2023-03-22T00:51:19.682Z,7.52
2023-03-22T00:53:50.900Z,7.55
2023-03-22T00:56:22.985Z,7.59
2023-03-22T00:58:52.454Z,7.57
2023-03-22T01:01:24.694Z,7.63
2023-03-22T01:03:54.151Z,7.60
2023-03-22T01:06:23.767Z,7.61
2023-03-22T01:08:55.304Z,7.60
2023-03-22T01:11:24.995Z,7.62
2023-03-22T01:13:54.807Z,7.63
2023-03-22T01:16:27.376Z,7.67
2023-03-22T01:18:56.859Z,7.67
2023-03-22T01:21:26.277Z,7.70
2023-03-22T01:23:55.967Z,7.71
2023-03-22T01:26:25.375Z,7.72
2023-03-22T01:28:54.812Z,7.72
2023-03-22T01:31:26.769Z,7.73
2023-03-22T01:33:56.609Z,7.77
2023-03-22T01:36:26.103Z,7.77
2023-03-22T01:38:55.565Z,7.78
2023-03-22T01:41:25.445Z,7.80
2023-03-22T01:44:10.725Z,7.82
2023-03-22T01:46:42.908Z,7.81
2023-03-22T01:49:14.201Z,7.83
2023-03-22T01:51:46.332Z,7.81
2023-03-22T01:54:19.111Z,7.86
2023-03-22T01:56:48.720Z,7.89
2023-03-22T01:59:18.238Z,7.89
2023-03-22T02:01:50.548Z,7.91
2023-03-22T02:04:23.489Z,7.91
2023-03-22T02:06:54.834Z,7.93
2023-03-22T02:09:24.628Z,7.96
2023-03-22T02:11:57.919Z,7.93
2023-03-22T02:14:45.343Z,7.95
2023-03-22T02:17:30.173Z,7.99
2023-03-22T02:20:28.561Z,8.00
2023-03-22T02:23:17.225Z,8.00
2023-03-22T02:26:03.939Z,7.99
2023-03-22T02:28:43.585Z,8.04
2023-03-22T02:31:42.383Z,8.04
2023-03-22T02:34:45.663Z,8.03
2023-03-22T02:37:40.861Z,8.07
2023-03-22T02:40:17.429Z,8.04
2023-03-22T02:42:57.971Z,8.06
2023-03-22T02:45:31.587Z,8.10
2023-03-22T02:48:08.091Z,8.10
2023-03-22T02:50:42.529Z,8.14
2023-03-22T02:53:17.541Z,8.18
2023-03-22T02:55:54.172Z,8.17
2023-03-22T02:58:26.611Z,8.20
2023-03-22T03:00:59.518Z,8.24
2023-03-22T03:03:30.909Z,8.28
2023-03-22T03:06:03.284Z,8.29
2023-03-22T03:08:33.733Z,8.34
2023-03-22T03:11:06.034Z,8.40
2023-03-22T03:13:35.580Z,8.41
2023-03-22T03:16:07.746Z,8.42
2023-03-22T03:18:44.701Z,8.40
2023-03-22T03:21:24.189Z,8.40
2023-03-22T03:23:58.305Z,8.44
2023-03-22T03:26:32.856Z,8.42
2023-03-22T03:29:04.465Z,8.42
2023-03-22T03:31:38.362Z,8.37
2023-03-22T03:34:16.325Z,8.36
2023-03-22T03:36:50.839Z,8.33
2023-03-22T03:39:22.073Z,8.31
2023-03-22T03:41:54.941Z,8.29
2023-03-22T03:44:24.654Z,8.26
2023-03-22T03:46:54.391Z,8.24
2023-03-22T03:49:25.251Z,8.22
2023-03-22T03:51:56.368Z,8.18
2023-03-22T03:54:26.538Z,8.18
2023-03-22T03:56:58.674Z,8.14
2023-03-22T03:59:28.715Z,8.15
2023-03-22T04:01:58.295Z,8.12
2023-03-22T04:04:30.233Z,8.12
2023-03-22T04:07:01.719Z,8.10
2023-03-22T04:09:33.036Z,8.08
2023-03-22T04:12:05.075Z,8.09
2023-03-22T04:14:34.899Z,8.07
2023-03-22T04:17:04.310Z,8.04
2023-03-22T04:19:33.874Z,8.04
2023-03-22T04:22:03.339Z,8.02
2023-03-22T04:24:32.754Z,8.03
2023-03-22T04:27:04.874Z,8.02
2023-03-22T04:29:36.262Z,7.99
2023-03-22T04:32:06.000Z,8.01
2023-03-22T04:34:35.377Z,8.01
2023-03-22T04:37:05.098Z,8.04
2023-03-22T04:39:34.477Z,8.04
2023-03-22T04:42:07.419Z,8.05
2023-03-22T04:44:36.803Z,8.04
2023-03-22T04:47:06.367Z,8.05
2023-03-22T04:49:36.218Z,8.03
2023-03-22T04:52:06.355Z,8.04
2023-03-22T04:54:35.844Z,8.02
2023-03-22T04:57:07.959Z,8.01
2023-03-22T04:59:37.388Z,7.98
2023-03-22T05:02:06.869Z,8.01
2023-03-22T05:04:36.269Z,8.01
2023-03-22T05:07:08.614Z,7.99
2023-03-22T05:09:38.094Z,7.99
2023-03-22T05:12:10.304Z,8.03
2023-03-22T05:14:39.836Z,7.99
2023-03-22T05:17:09.585Z,8.01
2023-03-22T05:19:39.201Z,8.02
2023-03-22T05:22:08.641Z,8.03
2023-03-22T05:24:38.083Z,8.06
2023-03-22T05:27:10.985Z,8.05
2023-03-22T05:29:44.989Z,8.03
2023-03-22T05:32:14.551Z,8.06
2023-03-22T05:34:45.513Z,8.07
2023-03-22T05:37:14.940Z,8.06
2023-03-22T05:39:44.356Z,8.09
2023-03-22T05:42:16.561Z,8.10
2023-03-22T05:44:46.081Z,8.13
2023-03-22T05:47:16.087Z,8.12
2023-03-22T05:49:45.641Z,8.14
2023-03-22T05:52:15.101Z,8.13
2023-03-22T05:54:44.816Z,8.13
2023-03-22T05:57:17.067Z,8.14
2023-03-22T05:59:48.788Z,8.14
2023-03-22T06:02:18.537Z,8.17
2023-03-22T06:04:48.125Z,8.17
2023-03-22T06:07:17.851Z,8.20
2023-03-22T06:09:47.386Z,8.21
2023-03-22T06:12:22.619Z,8.22
2023-03-22T06:14:52.071Z,8.28
2023-03-22T06:17:21.625Z,8.26
2023-03-22T06:19:53.030Z,8.29
2023-03-22T06:22:23.132Z,8.31
2023-03-22T06:24:53.112Z,8.33
2023-03-22T06:27:25.136Z,8.40
2023-03-22T06:29:54.956Z,8.43
2023-03-22T06:32:26.815Z,8.46
2023-03-22T06:34:56.569Z,8.51
2023-03-22T06:37:26.556Z,8.57
2023-03-22T06:39:55.969Z,8.60
2023-03-22T06:42:30.876Z,8.63
2023-03-22T06:45:00.941Z,8.71
2023-03-22T06:47:30.434Z,8.73
2023-03-22T06:49:59.899Z,8.82
2023-03-22T06:52:29.425Z,8.83
2023-03-22T06:54:58.952Z,8.85
2023-03-22T06:57:31.291Z,8.91
2023-03-22T07:00:00.750Z,8.91
2023-03-22T07:02:30.357Z,8.94
2023-03-22T07:05:00.084Z,8.96
2023-03-22T07:07:29.551Z,8.99
2023-03-22T07:09:58.998Z,9.03
2023-03-22T07:12:31.164Z,9.09
2023-03-22T07:15:00.668Z,9.11
2023-03-22T07:17:30.209Z,9.14
2023-03-22T07:19:59.853Z,9.15
2023-03-22T07:22:29.233Z,9.22
2023-03-22T07:25:01.249Z,9.22
2023-03-22T07:27:33.744Z,9.26
2023-03-22T07:30:03.170Z,9.30
2023-03-22T07:32:32.648Z,9.37
2023-03-22T07:35:02.587Z,9.38
2023-03-22T07:37:32.023Z,9.42
2023-03-22T07:40:01.436Z,9.48
2023-03-22T07:42:34.711Z,9.57
2023-03-22T07:45:04.221Z,9.66
2023-03-22T07:47:40.797Z,9.63
2023-03-22T07:50:12.524Z,9.67
2023-03-22T07:52:42.156Z,9.72
2023-03-22T07:55:13.643Z,9.77
2023-03-22T07:57:45.933Z,9.84
2023-03-22T08:00:17.745Z,9.76
2023-03-22T08:02:48.089Z,9.77
2023-03-22T08:05:17.835Z,9.76
2023-03-22T08:07:47.323Z,9.77
2023-03-22T08:10:17.095Z,9.79
2023-03-22T08:12:49.245Z,9.86
2023-03-22T08:15:20.797Z,9.90
2023-03-22T08:17:52.964Z,9.91
2023-03-22T08:20:22.844Z,9.94
2023-03-22T08:22:52.226Z,9.96
2023-03-22T08:25:21.655Z,9.94
2023-03-22T08:27:53.936Z,9.98
2023-03-22T08:30:24.705Z,9.99
2023-03-22T08:32:54.141Z,10.03
2023-03-22T08:35:23.682Z,10.10
2023-03-22T08:37:56.550Z,10.16
2023-03-22T08:40:26.126Z,10.15
2023-03-22T08:42:58.431Z,10.26
2023-03-22T08:45:28.896Z,10.46
2023-03-22T08:47:59.513Z,10.56
2023-03-22T08:50:29.343Z,10.56
2023-03-22T08:53:00.630Z,10.60
2023-03-22T08:55:30.091Z,10.71
2023-03-22T08:58:04.764Z,10.66
2023-03-22T09:00:47.607Z,10.73
2023-03-22T09:03:17.373Z,10.70
2023-03-22T09:05:47.051Z,10.74
2023-03-22T09:08:19.599Z,10.93
2023-03-22T09:10:52.002Z,11.11
2023-03-22T09:13:24.441Z,11.18
2023-03-22T09:15:53.952Z,11.24
2023-03-22T09:18:24.484Z,11.16
2023-03-22T09:20:54.693Z,11.21
2023-03-22T09:23:24.189Z,11.23
2023-03-22T09:25:53.922Z,11.17
2023-03-22T09:28:27.390Z,11.20
2023-03-22T09:30:57.086Z,11.24
2023-03-22T09:33:26.561Z,11.25
2023-03-22T09:35:57.383Z,11.30
2023-03-22T09:38:27.562Z,11.29
2023-03-22T09:41:00.807Z,11.25
2023-03-22T09:43:36.042Z,11.25
2023-03-22T09:48:59.574Z,11.21
2023-03-22T09:51:32.497Z,11.24
2023-03-22T09:54:00.888Z,11.23
2023-03-22T09:56:31.463Z,11.34
2023-03-22T09:59:07.205Z,11.38
2023-03-22T10:01:39.658Z,11.46
2023-03-22T10:07:07.147Z,11.53
2023-03-22T10:09:41.911Z,11.58
2023-03-22T10:12:16.496Z,11.59
2023-03-22T10:14:51.645Z,11.63
2023-03-22T10:17:22.297Z,11.61
2023-03-22T10:19:56.395Z,11.60
2023-03-22T10:22:32.116Z,11.65
2023-03-22T10:25:03.228Z,11.59
2023-03-22T10:27:33.490Z,11.57
2023-03-22T10:30:06.156Z,11.56
2023-03-22T10:32:54.773Z,11.57
2023-03-22T10:35:26.388Z,11.54
2023-03-22T10:38:00.553Z,11.59
2023-03-22T10:40:32.335Z,11.55
2023-03-22T10:43:03.950Z,11.60
2023-03-22T10:45:34.867Z,11.65
2023-03-22T10:48:08.049Z,11.65
2023-03-22T10:50:39.433Z,11.84
2023-03-22T10:53:15.257Z,11.75
2023-03-22T10:55:45.625Z,11.87
2023-03-22T10:58:17.179Z,11.78
2023-03-22T11:00:49.241Z,11.75
2023-03-22T11:03:33.197Z,11.84
2023-03-22T11:06:04.814Z,11.86
2023-03-22T11:08:45.218Z,11.86
2023-03-22T11:11:23.607Z,11.87
2023-03-22T11:13:58.528Z,12.05
2023-03-22T11:16:28.916Z,12.08
2023-03-22T11:19:00.147Z,12.17
2023-03-22T11:21:33.463Z,12.13
2023-03-22T11:24:08.185Z,12.06
2023-03-22T11:26:41.541Z,11.97
2023-03-22T11:29:16.546Z,11.98
2023-03-22T11:31:56.235Z,11.99
2023-03-22T11:34:28.162Z,12.10
2023-03-22T11:36:59.298Z,12.09
2023-03-22T11:39:32.229Z,11.94
2023-03-22T11:42:03.810Z,11.96
2023-03-22T11:44:38.089Z,12.03
2023-03-22T11:47:11.351Z,12.01
2023-03-22T11:49:47.850Z,12.01
2023-03-22T11:52:20.085Z,12.01
2023-03-22T11:54:52.806Z,12.12
2023-03-22T11:57:24.447Z,12.15
2023-03-22T11:59:59.576Z,12.03
2023-03-22T12:02:31.339Z,12.00
2023-03-22T12:05:05.793Z,12.02
2023-03-22T12:07:36.589Z,11.86
2023-03-22T12:10:13.887Z,11.89
2023-03-22T12:12:47.395Z,11.91
2023-03-22T12:15:21.070Z,11.86
2023-03-22T12:17:54.073Z,11.88
2023-03-22T12:20:33.696Z,11.93
2023-03-22T12:23:04.568Z,11.95
2023-03-22T12:25:38.774Z,11.87
2023-03-22T12:28:10.895Z,11.90
2023-03-22T12:30:43.355Z,11.87
2023-03-22T12:33:19.509Z,11.82
2023-03-22T12:35:49.586Z,11.79
2023-03-22T12:38:28.230Z,11.79
2023-03-22T12:41:03.939Z,11.81
2023-03-22T12:43:51.745Z,11.71
2023-03-22T12:46:23.884Z,11.74
2023-03-22T12:48:55.627Z,11.68
2023-03-22T12:51:25.426Z,11.66
2023-03-22T12:54:14.392Z,11.58
2023-03-22T12:56:48.092Z,11.51
2023-03-22T12:59:20.722Z,11.44
2023-03-22T13:01:54.625Z,11.24
2023-03-22T13:04:34.108Z,10.93
2023-03-22T13:07:13.304Z,10.83
2023-03-22T13:09:44.374Z,10.73
2023-03-22T13:12:35.358Z,10.58
2023-03-22T13:15:28.483Z,10.43
2023-03-22T13:18:02.011Z,10.33
2023-03-22T13:20:34.061Z,10.32
2023-03-22T13:23:12.874Z,10.26
2023-03-22T13:25:42.876Z,10.27
2023-03-22T13:28:38.260Z,10.25
2023-03-22T13:31:08.495Z,10.24
2023-03-22T13:33:38.986Z,10.28
2023-03-22T13:36:11.398Z,10.19
2023-03-22T13:38:43.058Z,10.22
2023-03-22T13:41:23.107Z,10.23
2023-03-22T13:43:57.223Z,10.27
2023-03-22T13:46:32.553Z,10.28
2023-03-22T13:49:20.646Z,10.36
2023-03-22T13:51:50.911Z,10.38
2023-03-22T13:54:24.086Z,10.38
2023-03-22T13:56:57.029Z,10.42
2023-03-22T13:59:33.994Z,10.45
2023-03-22T14:02:07.523Z,10.45
2023-03-22T14:04:42.610Z,10.46
2023-03-22T14:07:25.034Z,10.47
2023-03-22T14:09:56.083Z,10.51
2023-03-22T14:12:28.150Z,10.50
2023-03-22T14:15:03.943Z,10.56
2023-03-22T14:17:37.738Z,10.54
2023-03-22T14:20:10.585Z,10.53
2023-03-22T14:53:23.540Z,10.69
2023-03-22T14:55:54.129Z,10.70
2023-03-22T14:58:23.732Z,10.66
2023-03-22T15:00:55.910Z,10.69
2023-03-22T15:03:27.375Z,10.70
2023-03-22T15:05:57.238Z,10.64
2023-03-22T15:08:28.506Z,10.63
2023-03-22T15:11:02.892Z,10.61
2023-03-22T15:13:33.947Z,10.58
2023-03-22T15:16:06.475Z,10.58
2023-03-22T15:18:37.126Z,10.56
2023-03-22T15:21:08.090Z,10.57
2023-03-22T15:23:39.992Z,10.59
2023-03-22T15:26:11.068Z,10.58
2023-03-22T15:28:47.161Z,10.58
2023-03-22T15:31:27.987Z,10.55
2023-03-22T15:33:58.057Z,10.55
2023-03-22T15:36:28.063Z,10.57
2023-03-22T15:38:57.572Z,10.58
2023-03-22T15:41:30.953Z,10.55
2023-03-22T15:44:07.393Z,10.55
2023-03-22T15:47:03.311Z,10.57
2023-03-22T15:49:38.777Z,10.55
2023-03-22T15:52:13.178Z,10.55
2023-03-22T15:54:44.978Z,10.55
2023-03-22T15:57:21.710Z,10.55
2023-03-22T15:59:54.810Z,10.56
2023-03-22T16:02:39.743Z,10.53
2023-03-22T16:05:14.714Z,10.52
2023-03-22T16:07:44.212Z,10.49
2023-03-22T16:10:18.507Z,10.46
2023-03-22T16:12:48.369Z,10.45
2023-03-22T16:15:19.499Z,10.45
2023-03-22T16:17:51.658Z,10.45
2023-03-22T16:20:21.940Z,10.45
2023-03-22T16:22:53.054Z,10.46
2023-03-22T16:25:26.212Z,10.45
2023-03-22T16:27:55.847Z,10.46
2023-03-22T16:30:25.469Z,10.44
2023-03-22T16:32:57.529Z,10.43
2023-03-22T16:35:27.725Z,10.42
2023-03-22T16:37:57.247Z,10.33
2023-03-22T16:40:29.575Z,10.30
2023-03-22T16:42:59.474Z,10.27
2023-03-22T16:45:30.667Z,10.29
2023-03-22T16:48:03.062Z,10.26
2023-03-22T16:50:36.066Z,10.23
2023-03-22T16:53:05.956Z,10.21
2023-03-22T16:55:36.689Z,10.19
2023-03-22T16:58:06.202Z,10.18
2023-03-22T17:00:36.353Z,10.17
2023-03-22T17:03:10.890Z,10.16
2023-03-22T17:05:40.452Z,10.09
2023-03-22T17:08:19.502Z,10.05
2023-03-22T17:10:49.587Z,10.05
2023-03-22T17:13:19.517Z,10.03
2023-03-22T17:15:50.608Z,10.02
2023-03-22T17:18:22.761Z,10.01
2023-03-22T17:20:52.669Z,9.98
2023-03-22T17:23:22.957Z,9.98
2023-03-22T17:25:52.920Z,9.92
2023-03-22T17:28:26.380Z,9.91
2023-03-22T17:30:57.021Z,9.89
2023-03-22T17:33:30.184Z,9.88
2023-03-22T17:36:01.362Z,9.87
2023-03-22T17:38:34.727Z,9.90
2023-03-22T17:41:13.264Z,9.92
2023-03-22T17:43:43.262Z,9.89
2023-03-22T17:46:58.390Z,9.93
2023-03-22T17:49:04.927Z,9.86
2023-03-22T17:51:34.430Z,9.86
2023-03-22T17:54:35.455Z,9.85
2023-03-22T17:57:18.736Z,9.85
2023-03-22T17:59:43.011Z,9.90
2023-03-22T18:02:27.105Z,9.83
2023-03-22T18:04:59.608Z,9.79
2023-03-22T18:07:29.161Z,9.78
2023-03-22T18:09:58.801Z,9.77
2023-03-22T18:12:28.406Z,9.77
2023-03-22T18:14:58.031Z,9.75
2023-03-22T18:17:27.502Z,9.73
2023-03-22T18:20:12.541Z,9.76
2023-03-22T18:22:50.091Z,9.73
2023-03-22T18:25:20.473Z,9.74
2023-03-22T18:27:51.458Z,9.70
2023-03-22T18:30:22.944Z,9.67
2023-03-22T18:33:05.678Z,9.68
2023-03-22T18:35:38.277Z,9.71
2023-03-22T18:38:08.334Z,9.72
2023-03-22T18:41:12.809Z,9.76
2023-03-22T18:43:27.467Z,9.77
2023-03-22T18:46:05.435Z,9.76
2023-03-22T18:48:43.185Z,9.79
2023-03-22T18:51:15.434Z,9.79
2023-03-22T18:53:45.029Z,9.82
2023-03-22T18:58:44.895Z,9.85
2023-03-22T19:01:14.793Z,9.88
2023-03-22T19:03:44.311Z,9.88
2023-03-22T19:06:18.142Z,9.89
2023-03-22T19:08:49.037Z,9.94
2023-03-22T19:11:20.701Z,9.98
2023-03-22T19:14:34.990Z,9.95
2023-03-22T19:16:41.744Z,9.98
2023-03-22T19:19:11.264Z,10.00
2023-03-22T19:21:43.357Z,9.99
2023-03-22T19:24:12.927Z,10.02
2023-03-22T19:26:52.731Z,10.02
2023-03-22T19:29:31.732Z,10.02
2023-03-22T19:32:02.092Z,10.03
2023-03-22T19:34:32.580Z,10.05
2023-03-22T19:37:04.645Z,10.06
2023-03-22T19:39:34.348Z,10.11
2023-03-22T19:42:06.704Z,10.09
2023-03-22T19:44:36.572Z,10.08
2023-03-22T19:49:37.937Z,10.09
2023-03-22T19:52:10.756Z,10.09
2023-03-22T19:54:45.423Z,10.10
2023-03-22T19:57:15.068Z,10.10
2023-03-22T20:02:14.462Z,10.07
2023-03-22T20:04:44.714Z,10.05
2023-03-22T20:07:19.955Z,10.05
2023-03-22T20:09:49.504Z,10.06
2023-03-22T20:12:19.006Z,10.06
2023-03-22T20:14:48.537Z,10.07
2023-03-22T20:17:25.790Z,10.08
2023-03-22T20:19:55.863Z,10.06
2023-03-22T20:22:28.077Z,10.05
2023-03-22T20:24:57.636Z,10.02
2023-03-22T20:27:27.207Z,10.02
2023-03-22T20:29:58.059Z,9.85
2023-03-22T20:32:28.002Z,9.78
2023-03-22T20:34:57.568Z,9.71
2023-03-22T20:37:29.766Z,9.65
2023-03-22T20:39:59.312Z,9.59
2023-03-22T20:42:28.929Z,9.48
2023-03-22T20:44:58.473Z,9.39
2023-03-22T20:47:27.945Z,9.36
2023-03-22T20:49:57.477Z,9.33
2023-03-22T20:52:29.570Z,9.32
2023-03-22T20:54:59.189Z,9.29
2023-03-22T20:57:28.732Z,9.25
2023-03-22T20:59:58.299Z,9.24
2023-03-22T21:02:28.358Z,9.28
2023-03-22T21:04:57.877Z,9.30
2023-03-22T21:07:30.020Z,9.30
2023-03-22T21:09:59.539Z,9.31
2023-03-22T21:12:29.112Z,9.37
2023-03-22T21:15:00.174Z,9.36
2023-03-22T21:17:30.100Z,9.42
2023-03-22T21:19:59.741Z,9.42
2023-03-22T21:22:31.810Z,9.46
2023-03-22T21:25:01.522Z,9.48
2023-03-22T21:27:33.186Z,9.52
2023-03-22T21:30:03.627Z,9.52
2023-03-22T21:32:34.008Z,9.55
2023-03-22T21:35:03.578Z,9.59
2023-03-22T21:37:36.358Z,9.62
2023-03-22T21:40:07.100Z,9.67
2023-03-22T21:42:37.933Z,9.66
2023-03-22T21:45:08.044Z,9.65
2023-03-22T21:47:37.514Z,9.52
2023-03-22T21:50:08.314Z,9.40
2023-03-22T21:52:41.121Z,9.30
2023-03-22T21:55:11.732Z,9.25
2023-03-22T21:57:41.217Z,9.21
2023-03-22T22:00:15.652Z,9.20
2023-03-22T22:02:45.198Z,9.19
2023-03-22T22:05:18.285Z,9.15
2023-03-22T22:07:50.763Z,9.10
2023-03-22T22:10:20.622Z,9.03
2023-03-22T22:12:51.953Z,9.05
2023-03-22T22:15:22.243Z,9.00
2023-03-22T22:17:52.180Z,9.00
2023-03-22T22:20:24.404Z,9.00
2023-03-22T22:22:57.584Z,8.98
2023-03-22T22:25:27.276Z,8.99
2023-03-22T22:27:56.790Z,8.99
2023-03-22T22:30:27.675Z,9.08
2023-03-22T22:32:57.594Z,9.12
2023-03-22T22:35:27.343Z,9.09
2023-03-22T22:37:59.496Z,9.11
2023-03-22T22:40:29.030Z,9.13
2023-03-22T22:42:58.743Z,9.16
2023-03-22T22:45:29.018Z,9.20
2023-03-22T22:47:59.089Z,9.25
2023-03-22T22:50:28.620Z,9.26
2023-03-22T22:53:01.066Z,9.31
2023-03-22T22:55:31.247Z,9.34
2023-03-22T22:58:00.723Z,9.37
2023-03-22T23:00:31.601Z,9.35
2023-03-22T23:03:02.883Z,9.35
2023-03-22T23:05:32.389Z,9.33
2023-03-22T23:08:07.853Z,9.27
2023-03-22T23:10:37.938Z,9.30
2023-03-22T23:13:09.433Z,9.32
2023-03-22T23:15:39.227Z,9.28
2023-03-22T23:18:13.110Z,9.25
2023-03-22T23:20:43.288Z,9.24
2023-03-22T23:23:17.674Z,9.17
2023-03-22T23:25:47.145Z,9.13
2023-03-22T23:28:17.516Z,9.10
2023-03-22T23:30:47.170Z,9.04
2023-03-22T23:33:16.728Z,9.03
2023-03-22T23:35:50.829Z,8.96
2023-03-22T23:38:22.954Z,9.03
2023-03-22T23:40:56.171Z,8.97
2023-03-22T23:43:26.238Z,8.91
2023-03-22T23:45:55.766Z,8.85
2023-03-22T23:48:25.686Z,8.84
2023-03-22T23:50:58.210Z,8.81
2023-03-22T23:53:30.518Z,8.84
2023-03-22T23:56:00.182Z,8.80
2023-03-22T23:58:29.751Z,8.76
